sensor_id;sensor_type;location;lat;lon;timestamp;pressure;altitude;pressure_sealevel;temperature;humidity
65190;BME280;51777;53.570;9.984;2023-01-25T00:01:41;103563.03;;;1.46;100.00
65190;BME280;51777;53.570;9.984;2023-01-25T00:04:06;103549.47;;;1.44;100.00
65190;BME280;51777;53.570;9.984;2023-01-25T00:06:32;103554.59;;;1.41;100.00
65190;BME280;51777;53.570;9.984;2023-01-25T00:08:57;103547.16;;;1.20;100.00
65190;BME280;51777;53.570;9.984;2023-01-25T00:11:23;103554.16;;;1.02;100.00
65190;BME280;51777;53.570;9.984;2023-01-25T00:13:48;103550.75;;;1.03;100.00
65190;BME280;51777;53.570;9.984;2023-01-25T00:16:14;103545.69;;;1.00;100.00
65190;BME280;51777;53.570;9.984;2023-01-25T00:18:39;103540.63;;;0.94;100.00
65190;BME280;51777;53.570;9.984;2023-01-25T00:21:12;103542.34;;;0.94;100.00
65190;BME280;51777;53.570;9.984;2023-01-25T00:23:38;103533.84;;;0.93;100.00
65190;BME280;51777;53.570;9.984;2023-01-25T00:26:04;103524.44;;;0.98;100.00
65190;BME280;51777;53.570;9.984;2023-01-25T00:28:29;103520.19;;;0.99;100.00
65190;BME280;51777;53.570;9.984;2023-01-25T00:30:59;103527.00;;;1.01;100.00
65190;BME280;51777;53.570;9.984;2023-01-25T00:36:37;103526.88;;;1.10;100.00
65190;BME280;51777;53.570;9.984;2023-01-25T00:39:05;103527.63;;;1.20;100.00
65190;BME280;51777;53.570;9.984;2023-01-25T00:41:31;103530.22;;;1.15;100.00
65190;BME280;51777;53.570;9.984;2023-01-25T00:43:57;103526.91;;;1.09;100.00
65190;BME280;51777;53.570;9.984;2023-01-25T00:46:23;103521.13;;;0.92;100.00
65190;BME280;51777;53.570;9.984;2023-01-25T00:48:52;103511.88;;;0.83;100.00
65190;BME280;51777;53.570;9.984;2023-01-25T00:51:17;103510.06;;;0.94;100.00
65190;BME280;51777;53.570;9.984;2023-01-25T00:53:42;103505.78;;;0.98;100.00
65190;BME280;51777;53.570;9.984;2023-01-25T00:56:08;103507.56;;;0.91;100.00
65190;BME280;51777;53.570;9.984;2023-01-25T00:58:33;103509.25;;;0.91;100.00
65190;BME280;51777;53.570;9.984;2023-01-25T01:00:58;103504.28;;;0.78;100.00
65190;BME280;51777;53.570;9.984;2023-01-25T01:03:24;103494.94;;;0.79;100.00
65190;BME280;51777;53.570;9.984;2023-01-25T01:06:07;103494.09;;;0.78;100.00
65190;BME280;51777;53.570;9.984;2023-01-25T01:08:35;103493.25;;;0.78;100.00
65190;BME280;51777;53.570;9.984;2023-01-25T01:11:04;103492.41;;;0.74;100.00
65190;BME280;51777;53.570;9.984;2023-01-25T01:13:30;103500.91;;;0.73;100.00
65190;BME280;51777;53.570;9.984;2023-01-25T01:15:55;103494.97;;;0.74;100.00
65190;BME280;51777;53.570;9.984;2023-01-25T01:18:22;103489.03;;;0.75;100.00
65190;BME280;51777;53.570;9.984;2023-01-25T01:20:49;103490.00;;;0.64;100.00
65190;BME280;51777;53.570;9.984;2023-01-25T01:23:14;103490.81;;;0.66;100.00
65190;BME280;51777;53.570;9.984;2023-01-25T01:25:40;103491.75;;;0.55;100.00
65190;BME280;51777;53.570;9.984;2023-01-25T01:28:05;103490.97;;;0.46;100.00
65190;BME280;51777;53.570;9.984;2023-01-25T01:30:31;103491.81;;;0.46;100.00
65190;BME280;51777;53.570;9.984;2023-01-25T01:32:56;103484.91;;;0.61;100.00
65190;BME280;51777;53.570;9.984;2023-01-25T01:35:21;103485.81;;;0.55;100.00
65190;BME280;51777;53.570;9.984;2023-01-25T01:37:47;103484.97;;;0.54;100.00
65190;BME280;51777;53.570;9.984;2023-01-25T01:40:14;103485.81;;;0.56;100.00
65190;BME280;51777;53.570;9.984;2023-01-25T01:43:02;103488.28;;;0.66;100.00
65190;BME280;51777;53.570;9.984;2023-01-25T01:50:53;103481.50;;;0.62;100.00
65190;BME280;51777;53.570;9.984;2023-01-25T01:53:22;103482.38;;;0.59;100.00
65190;BME280;51777;53.570;9.984;2023-01-25T01:55:50;103470.59;;;0.50;100.00
65190;BME280;51777;53.570;9.984;2023-01-25T01:58:16;103474.88;;;0.44;100.00
65190;BME280;51777;53.570;9.984;2023-01-25T02:00:42;103469.78;;;0.45;100.00
65190;BME280;51777;53.570;9.984;2023-01-25T02:03:08;103462.25;;;0.33;100.00
65190;BME280;51777;53.570;9.984;2023-01-25T02:06:27;103464.78;;;0.33;100.00
65190;BME280;51777;53.570;9.984;2023-01-25T02:08:56;103461.38;;;0.36;100.00
65190;BME280;51777;53.570;9.984;2023-01-25T02:11:25;103462.16;;;0.44;100.00
65190;BME280;51777;53.570;9.984;2023-01-25T02:13:52;103468.88;;;0.52;100.00
65190;BME280;51777;53.570;9.984;2023-01-25T02:16:22;103457.13;;;0.36;100.00
65190;BME280;51777;53.570;9.984;2023-01-25T02:18:48;103457.97;;;0.37;100.00
65190;BME280;51777;53.570;9.984;2023-01-25T02:21:14;103448.66;;;0.36;100.00
65190;BME280;51777;53.570;9.984;2023-01-25T02:23:49;103457.19;;;0.28;100.00
65190;BME280;51777;53.570;9.984;2023-01-25T02:26:17;103463.94;;;0.33;100.00
65190;BME280;51777;53.570;9.984;2023-01-25T02:28:51;103449.53;;;0.33;100.00
65190;BME280;51777;53.570;9.984;2023-01-25T02:31:18;103450.31;;;0.37;100.00
65190;BME280;51777;53.570;9.984;2023-01-25T02:33:43;103453.66;;;0.45;100.00
65190;BME280;51777;53.570;9.984;2023-01-25T02:38:38;103446.09;;;0.37;100.00
65190;BME280;51777;53.570;9.984;2023-01-25T02:41:09;103451.22;;;0.34;100.00
65190;BME280;51777;53.570;9.984;2023-01-25T02:43:36;103436.78;;;0.38;100.00
65190;BME280;51777;53.570;9.984;2023-01-25T02:46:27;103429.84;;;0.49;100.00
65190;BME280;51777;53.570;9.984;2023-01-25T02:48:54;103433.22;;;0.55;100.00
65190;BME280;51777;53.570;9.984;2023-01-25T02:51:22;103428.13;;;0.55;100.00
65190;BME280;51777;53.570;9.984;2023-01-25T02:53:47;103434.09;;;0.48;100.00
65190;BME280;51777;53.570;9.984;2023-01-25T02:56:13;103433.44;;;0.29;100.00
65190;BME280;51777;53.570;9.984;2023-01-25T02:58:39;103422.47;;;0.23;100.00
65190;BME280;51777;53.570;9.984;2023-01-25T03:01:04;103428.38;;;0.23;100.00
65190;BME280;51777;53.570;9.984;2023-01-25T03:03:30;103426.78;;;0.16;100.00
65190;BME280;51777;53.570;9.984;2023-01-25T03:05:55;103427.63;;;0.15;100.00
65190;BME280;51777;53.570;9.984;2023-01-25T03:08:21;103420.88;;;0.13;100.00
65190;BME280;51777;53.570;9.984;2023-01-25T03:10:46;103421.66;;;0.19;100.00
65190;BME280;51777;53.570;9.984;2023-01-25T03:13:11;103421.56;;;0.30;100.00
65190;BME280;51777;53.570;9.984;2023-01-25T03:15:37;103423.19;;;0.40;100.00
65190;BME280;51777;53.570;9.984;2023-01-25T03:18:02;103413.75;;;0.50;100.00
65190;BME280;51777;53.570;9.984;2023-01-25T03:20:28;103412.25;;;0.29;100.00
65190;BME280;51777;53.570;9.984;2023-01-25T03:22:53;103414.81;;;0.26;100.00
65190;BME280;51777;53.570;9.984;2023-01-25T03:25:19;103412.22;;;0.32;100.00
65190;BME280;51777;53.570;9.984;2023-01-25T03:27:44;103397.75;;;0.36;100.00
65190;BME280;51777;53.570;9.984;2023-01-25T03:30:10;103402.88;;;0.33;100.00
65190;BME280;51777;53.570;9.984;2023-01-25T03:32:35;103391.81;;;0.38;100.00
65190;BME280;51777;53.570;9.984;2023-01-25T03:35:02;103396.88;;;0.41;100.00
65190;BME280;51777;53.570;9.984;2023-01-25T03:37:27;103393.53;;;0.35;100.00
65190;BME280;51777;53.570;9.984;2023-01-25T03:39:55;103388.53;;;0.27;100.00
65190;BME280;51777;53.570;9.984;2023-01-25T03:42:21;103395.28;;;0.28;100.00
65190;BME280;51777;53.570;9.984;2023-01-25T03:44:47;103382.50;;;0.34;100.00
65190;BME280;51777;53.570;9.984;2023-01-25T03:47:12;103381.75;;;0.24;100.00
65190;BME280;51777;53.570;9.984;2023-01-25T03:49:38;103380.28;;;0.01;100.00
65190;BME280;51777;53.570;9.984;2023-01-25T03:52:03;103376.88;;;-0.02;100.00
65190;BME280;51777;53.570;9.984;2023-01-25T03:54:29;103372.66;;;0.01;100.00
65190;BME280;51777;53.570;9.984;2023-01-25T03:56:54;103374.22;;;0.11;100.00
65190;BME280;51777;53.570;9.984;2023-01-25T03:59:20;103378.41;;;0.18;100.00
65190;BME280;51777;53.570;9.984;2023-01-25T04:01:45;103381.84;;;0.14;100.00
65190;BME280;51777;53.570;9.984;2023-01-25T04:04:10;103369.16;;;0.09;100.00
65190;BME280;51777;53.570;9.984;2023-01-25T04:06:36;103376.78;;;0.11;100.00
65190;BME280;51777;53.570;9.984;2023-01-25T04:09:02;103370.09;;;0.01;100.00
65190;BME280;51777;53.570;9.984;2023-01-25T04:11:27;103363.31;;;0.03;100.00
65190;BME280;51777;53.570;9.984;2023-01-25T04:13:53;103359.81;;;0.14;100.00
65190;BME280;51777;53.570;9.984;2023-01-25T04:16:18;103367.44;;;0.11;100.00
65190;BME280;51777;53.570;9.984;2023-01-25T04:18:44;103365.81;;;0.06;100.00
65190;BME280;51777;53.570;9.984;2023-01-25T04:21:09;103355.66;;;0.04;100.00
65190;BME280;51777;53.570;9.984;2023-01-25T04:23:34;103360.94;;;-0.25;100.00
65190;BME280;51777;53.570;9.984;2023-01-25T04:26:02;103350.97;;;-0.48;100.00
65190;BME280;51777;53.570;9.984;2023-01-25T04:28:30;103355.09;;;-0.33;100.00
65190;BME280;51777;53.570;9.984;2023-01-25T04:30:56;103359.25;;;-0.26;100.00
65190;BME280;51777;53.570;9.984;2023-01-25T04:33:22;103355.81;;;-0.16;100.00
65190;BME280;51777;53.570;9.984;2023-01-25T04:35:48;103350.78;;;-0.22;100.00
65190;BME280;51777;53.570;9.984;2023-01-25T04:38:13;103350.72;;;-0.17;100.00
65190;BME280;51777;53.570;9.984;2023-01-25T04:40:39;103343.94;;;-0.12;100.00
65190;BME280;51777;53.570;9.984;2023-01-25T04:43:05;103340.50;;;-0.13;100.00
65190;BME280;51777;53.570;9.984;2023-01-25T04:45:31;103341.28;;;-0.02;100.00
65190;BME280;51777;53.570;9.984;2023-01-25T04:47:59;103337.97;;;-0.08;100.00
65190;BME280;51777;53.570;9.984;2023-01-25T04:50:25;103326.16;;;-0.17;100.00
65190;BME280;51777;53.570;9.984;2023-01-25T04:52:50;103332.06;;;-0.16;100.00
65190;BME280;51777;53.570;9.984;2023-01-25T04:55:16;103331.13;;;-0.05;100.00
65190;BME280;51777;53.570;9.984;2023-01-25T04:57:41;103324.31;;;0.02;100.00
65190;BME280;51777;53.570;9.984;2023-01-25T05:00:07;103323.50;;;-0.03;100.00
65190;BME280;51777;53.570;9.984;2023-01-25T05:02:33;103331.13;;;0.00;100.00
65190;BME280;51777;53.570;9.984;2023-01-25T05:04:58;103329.34;;;0.07;100.00
65190;BME280;51777;53.570;9.984;2023-01-25T05:07:24;103328.88;;;-0.40;100.00
65190;BME280;51777;53.570;9.984;2023-01-25T05:09:49;103323.88;;;-0.52;100.00
65190;BME280;51777;53.570;9.984;2023-01-25T05:12:14;103322.16;;;-0.45;100.00
65190;BME280;51777;53.570;9.984;2023-01-25T05:14:40;103324.63;;;-0.38;100.00
65190;BME280;51777;53.570;9.984;2023-01-25T05:17:06;103328.78;;;-0.27;100.00
65190;BME280;51777;53.570;9.984;2023-01-25T05:19:32;103322.81;;;-0.20;100.00
65190;BME280;51777;53.570;9.984;2023-01-25T05:21:58;103319.34;;;-0.15;100.00
65190;BME280;51777;53.570;9.984;2023-01-25T05:24:25;103312.66;;;-0.26;100.00
65190;BME280;51777;53.570;9.984;2023-01-25T05:26:51;103312.66;;;-0.23;100.00
65190;BME280;51777;53.570;9.984;2023-01-25T05:29:30;103312.66;;;-0.23;100.00
65190;BME280;51777;53.570;9.984;2023-01-25T05:31:58;103308.38;;;-0.18;100.00
65190;BME280;51777;53.570;9.984;2023-01-25T05:34:23;103303.28;;;-0.17;100.00
65190;BME280;51777;53.570;9.984;2023-01-25T05:36:50;103295.59;;;-0.11;100.00
65190;BME280;51777;53.570;9.984;2023-01-25T05:39:15;103295.72;;;-0.23;100.00
65190;BME280;51777;53.570;9.984;2023-01-25T05:41:41;103295.63;;;-0.17;100.00
65190;BME280;51777;53.570;9.984;2023-01-25T05:44:06;103295.59;;;-0.11;100.00
65190;BME280;51777;53.570;9.984;2023-01-25T05:46:32;103293.91;;;-0.13;100.00
65190;BME280;51777;53.570;9.984;2023-01-25T05:48:57;103298.16;;;-0.12;100.00
65190;BME280;51777;53.570;9.984;2023-01-25T05:51:22;103294.72;;;-0.07;100.00
65190;BME280;51777;53.570;9.984;2023-01-25T05:53:48;103288.69;;;0.04;100.00
65190;BME280;51777;53.570;9.984;2023-01-25T05:56:13;103286.97;;;0.06;100.00
65190;BME280;51777;53.570;9.984;2023-01-25T05:58:42;103292.91;;;0.06;100.00
65190;BME280;51777;53.570;9.984;2023-01-25T06:01:07;103285.31;;;-0.02;100.00
65190;BME280;51777;53.570;9.984;2023-01-25T06:03:33;103284.44;;;0.04;100.00
65190;BME280;51777;53.570;9.984;2023-01-25T06:06:00;103273.34;;;0.10;100.00
65190;BME280;51777;53.570;9.984;2023-01-25T06:08:27;103274.09;;;0.19;100.00
65190;BME280;51777;53.570;9.984;2023-01-25T06:10:52;103266.50;;;0.16;100.00
65190;BME280;51777;53.570;9.984;2023-01-25T06:13:18;103272.44;;;0.17;100.00
65190;BME280;51777;53.570;9.984;2023-01-25T06:15:56;103270.84;;;0.07;100.00
65190;BME280;51777;53.570;9.984;2023-01-25T06:18:22;103271.78;;;-0.04;100.00
65190;BME280;51777;53.570;9.984;2023-01-25T06:20:49;103271.84;;;-0.10;100.00
65190;BME280;51777;53.570;9.984;2023-01-25T06:23:14;103274.38;;;-0.07;100.00
65190;BME280;51777;53.570;9.984;2023-01-25T06:25:40;103277.78;;;-0.08;100.00
65190;BME280;51777;53.570;9.984;2023-01-25T06:28:05;103285.50;;;-0.18;100.00
65190;BME280;51777;53.570;9.984;2023-01-25T06:30:31;103283.75;;;-0.15;100.00
65190;BME280;51777;53.570;9.984;2023-01-25T06:33:00;103272.72;;;-0.14;100.00
65190;BME280;51777;53.570;9.984;2023-01-25T06:35:26;103276.97;;;-0.14;100.00
65190;BME280;51777;53.570;9.984;2023-01-25T06:37:56;103273.56;;;-0.10;100.00
65190;BME280;51777;53.570;9.984;2023-01-25T06:40:22;103277.72;;;-0.05;100.00
65190;BME280;51777;53.570;9.984;2023-01-25T06:42:47;103281.41;;;-0.36;100.00
65190;BME280;51777;53.570;9.984;2023-01-25T06:45:13;103280.47;;;-0.26;100.00
65190;BME280;51777;53.570;9.984;2023-01-25T06:47:39;103286.31;;;-0.16;100.00
65190;BME280;51777;53.570;9.984;2023-01-25T06:50:05;103280.25;;;-0.03;100.00
65190;BME280;51777;53.570;9.984;2023-01-25T06:52:30;103281.22;;;-0.12;100.00
65190;BME280;51777;53.570;9.984;2023-01-25T06:54:56;103285.44;;;-0.14;100.00
65190;BME280;51777;53.570;9.984;2023-01-25T06:57:22;103277.78;;;-0.08;100.00
65190;BME280;51777;53.570;9.984;2023-01-25T06:59:47;103278.56;;;-0.04;100.00
65190;BME280;51777;53.570;9.984;2023-01-25T07:02:16;103277.72;;;-0.03;100.00
65190;BME280;51777;53.570;9.984;2023-01-25T07:04:41;103280.28;;;-0.06;100.00
65190;BME280;51777;53.570;9.984;2023-01-25T07:07:07;103275.16;;;-0.02;100.00
65190;BME280;51777;53.570;9.984;2023-01-25T07:09:34;103274.31;;;0.01;100.00
65190;BME280;51777;53.570;9.984;2023-01-25T07:12:00;103264.97;;;0.02;100.00
65190;BME280;51777;53.570;9.984;2023-01-25T07:14:29;103263.16;;;0.14;100.00
65190;BME280;51777;53.570;9.984;2023-01-25T07:16:54;103262.25;;;0.18;100.00
65190;BME280;51777;53.570;9.984;2023-01-25T07:19:19;103258.88;;;0.16;100.00
65190;BME280;51777;53.570;9.984;2023-01-25T07:21:45;103256.34;;;0.15;100.00
65190;BME280;51777;53.570;9.984;2023-01-25T07:24:13;103251.31;;;0.09;100.00
65190;BME280;51777;53.570;9.984;2023-01-25T07:26:39;103249.59;;;0.11;100.00
65190;BME280;51777;53.570;9.984;2023-01-25T07:29:05;103247.94;;;0.08;100.00
65190;BME280;51777;53.570;9.984;2023-01-25T07:31:30;103247.88;;;0.14;100.00
65190;BME280;51777;53.570;9.984;2023-01-25T07:33:57;103251.16;;;0.24;100.00
65190;BME280;51777;53.570;9.984;2023-01-25T07:36:23;103242.81;;;0.13;100.00
65190;BME280;51777;53.570;9.984;2023-01-25T07:38:56;103242.84;;;0.08;100.00
65190;BME280;51777;53.570;9.984;2023-01-25T07:41:23;103238.59;;;0.10;100.00
65190;BME280;51777;53.570;9.984;2023-01-25T07:43:49;103238.78;;;-0.08;100.00
65190;BME280;51777;53.570;9.984;2023-01-25T07:46:15;103229.53;;;-0.15;100.00
65190;BME280;51777;53.570;9.984;2023-01-25T07:48:45;103238.03;;;-0.19;100.00
65190;BME280;51777;53.570;9.984;2023-01-25T07:51:11;103232.13;;;-0.21;100.00
65190;BME280;51777;53.570;9.984;2023-01-25T07:53:46;103232.03;;;-0.09;100.00
65190;BME280;51777;53.570;9.984;2023-01-25T07:56:12;103232.84;;;-0.07;100.00
65190;BME280;51777;53.570;9.984;2023-01-25T07:58:38;103221.78;;;-0.03;100.00
65190;BME280;51777;53.570;9.984;2023-01-25T08:01:08;103221.88;;;-0.11;100.00
65190;BME280;51777;53.570;9.984;2023-01-25T08:03:34;103218.28;;;0.06;100.00
65190;BME280;51777;53.570;9.984;2023-01-25T08:06:03;103211.38;;;0.17;100.00
65190;BME280;51777;53.570;9.984;2023-01-25T08:08:34;103210.53;;;0.18;100.00
65190;BME280;51777;53.570;9.984;2023-01-25T08:11:22;103206.16;;;0.29;100.00
65190;BME280;51777;53.570;9.984;2023-01-25T08:13:48;103196.78;;;0.33;100.00
65190;BME280;51777;53.570;9.984;2023-01-25T08:16:15;103200.94;;;0.37;100.00
65190;BME280;51777;53.570;9.984;2023-01-25T08:18:41;103205.19;;;0.39;100.00
65190;BME280;51777;53.570;9.984;2023-01-25T08:21:08;103206.84;;;0.42;100.00
65190;BME280;51777;53.570;9.984;2023-01-25T08:23:34;103203.66;;;0.26;100.00
65190;BME280;51777;53.570;9.984;2023-01-25T08:26:01;103203.91;;;0.03;100.00
65190;BME280;51777;53.570;9.984;2023-01-25T08:28:27;103196.28;;;0.03;100.00
65190;BME280;51777;53.570;9.984;2023-01-25T08:30:52;103194.03;;;-0.26;100.00
65190;BME280;51777;53.570;9.984;2023-01-25T08:33:18;103195.59;;;-0.13;100.00
65190;BME280;51777;53.570;9.984;2023-01-25T08:35:53;103187.88;;;-0.04;100.00
65190;BME280;51777;53.570;9.984;2023-01-25T08:38:19;103186.06;;;0.08;100.00
65190;BME280;51777;53.570;9.984;2023-01-25T08:40:44;103182.56;;;0.16;100.00
65190;BME280;51777;53.570;9.984;2023-01-25T08:43:09;103177.75;;;-0.07;100.00
65190;BME280;51777;53.570;9.984;2023-01-25T08:45:35;103182.19;;;-0.24;100.00
65190;BME280;51777;53.570;9.984;2023-01-25T08:48:01;103169.72;;;-0.48;100.00
65190;BME280;51777;53.570;9.984;2023-01-25T08:50:26;103163.72;;;-0.44;100.00
65190;BME280;51777;53.570;9.984;2023-01-25T08:52:52;103155.09;;;-0.28;100.00
65190;BME280;51777;53.570;9.984;2023-01-25T08:55:20;103156.59;;;-0.13;100.00
65190;BME280;51777;53.570;9.984;2023-01-25T08:57:46;103157.34;;;-0.02;100.00
65190;BME280;51777;53.570;9.984;2023-01-25T09:00:12;103150.63;;;-0.08;100.00
65190;BME280;51777;53.570;9.984;2023-01-25T09:02:37;103152.31;;;-0.07;100.00
65190;BME280;51777;53.570;9.984;2023-01-25T09:05:03;103149.66;;;0.03;100.00
65190;BME280;51777;53.570;9.984;2023-01-25T09:07:29;103147.22;;;-0.07;100.00
65190;BME280;51777;53.570;9.984;2023-01-25T09:09:57;103153.19;;;-0.08;100.00
65190;BME280;51777;53.570;9.984;2023-01-25T09:12:23;103151.31;;;0.07;100.00
65190;BME280;51777;53.570;9.984;2023-01-25T09:14:48;103143.88;;;-0.09;100.00
65190;BME280;51777;53.570;9.984;2023-01-25T09:17:14;103137.97;;;-0.14;100.00
65190;BME280;51777;53.570;9.984;2023-01-25T09:19:39;103143.09;;;-0.17;100.00
65190;BME280;51777;53.570;9.984;2023-01-25T09:22:07;103139.00;;;-0.30;100.00
65190;BME280;51777;53.570;9.984;2023-01-25T09:24:32;103138.03;;;-0.18;100.00
65190;BME280;51777;53.570;9.984;2023-01-25T09:26:58;103126.97;;;-0.14;100.00
65190;BME280;51777;53.570;9.984;2023-01-25T09:29:24;103129.56;;;-0.19;100.00
65190;BME280;51777;53.570;9.984;2023-01-25T09:31:49;103122.00;;;-0.22;100.00
65190;BME280;51777;53.570;9.984;2023-01-25T09:34:15;103126.88;;;-0.05;100.00
65190;BME280;51777;53.570;9.984;2023-01-25T09:36:40;103134.44;;;-0.01;100.00
65190;BME280;51777;53.570;9.984;2023-01-25T09:39:06;103122.41;;;0.12;100.00
65190;BME280;51777;53.570;9.984;2023-01-25T09:47:29;103118.91;;;0.21;100.00
65190;BME280;51777;53.570;9.984;2023-01-25T09:55:58;103111.38;;;0.15;100.00
65190;BME280;51777;53.570;9.984;2023-01-25T09:58:30;103111.41;;;0.10;100.00
65190;BME280;51777;53.570;9.984;2023-01-25T10:03:52;103104.56;;;0.15;100.00
65190;BME280;51777;53.570;9.984;2023-01-25T10:06:22;103098.84;;;0.01;100.00
65190;BME280;51777;53.570;9.984;2023-01-25T10:11:36;103098.28;;;-0.24;100.00
65190;BME280;51777;53.570;9.984;2023-01-25T10:14:12;103099.84;;;-0.14;100.00
65190;BME280;51777;53.570;9.984;2023-01-25T10:17:10;103092.06;;;-0.02;100.00
65190;BME280;51777;53.570;9.984;2023-01-25T10:19:51;103090.56;;;-0.18;100.00
65190;BME280;51777;53.570;9.984;2023-01-25T10:22:22;103087.25;;;-0.23;100.00
65190;BME280;51777;53.570;9.984;2023-01-25T10:25:23;103084.59;;;-0.12;100.00
65190;BME280;51777;53.570;9.984;2023-01-25T10:28:15;103080.09;;;0.07;100.00
65190;BME280;51777;53.570;9.984;2023-01-25T10:30:55;103068.25;;;0.06;100.00
65190;BME280;51777;53.570;9.984;2023-01-25T10:33:22;103069.81;;;0.16;100.00
65190;BME280;51777;53.570;9.984;2023-01-25T10:35:48;103060.56;;;0.09;100.00
65190;BME280;51777;53.570;9.984;2023-01-25T10:40:49;103050.25;;;0.19;100.00
65190;BME280;51777;53.570;9.984;2023-01-25T10:43:21;103054.38;;;0.28;100.00
65190;BME280;51777;53.570;9.984;2023-01-25T10:45:47;103049.91;;;0.42;100.00
65190;BME280;51777;53.570;9.984;2023-01-25T10:48:20;103043.19;;;0.38;100.00
65190;BME280;51777;53.570;9.984;2023-01-25T10:50:49;103049.97;;;0.36;100.00
65190;BME280;51777;53.570;9.984;2023-01-25T10:53:26;103044.13;;;0.33;100.00
65190;BME280;51777;53.570;9.984;2023-01-25T10:56:05;103043.31;;;0.29;100.00
65190;BME280;51777;53.570;9.984;2023-01-25T10:58:42;103042.50;;;0.28;100.00
65190;BME280;51777;53.570;9.984;2023-01-25T11:01:24;103035.69;;;0.29;100.00
65190;BME280;51777;53.570;9.984;2023-01-25T11:03:50;103024.53;;;0.36;100.00
65190;BME280;51777;53.570;9.984;2023-01-25T11:06:33;103026.94;;;-0.10;100.00
65190;BME280;51777;53.570;9.984;2023-01-25T11:09:01;103018.50;;;-0.15;100.00
65190;BME280;51777;53.570;9.984;2023-01-25T11:11:35;103008.97;;;0.02;100.00
65190;BME280;51777;53.570;9.984;2023-01-25T11:17:21;102992.69;;;0.12;100.00
65190;BME280;51777;53.570;9.984;2023-01-25T11:20:26;102990.19;;;0.09;100.00
65190;BME280;51777;53.570;9.984;2023-01-25T11:22:56;102983.28;;;0.19;100.00
65190;BME280;51777;53.570;9.984;2023-01-25T11:25:38;102981.28;;;0.36;100.00
65190;BME280;51777;53.570;9.984;2023-01-25T11:28:38;102968.66;;;0.32;100.00
65190;BME280;51777;53.570;9.984;2023-01-25T11:31:07;102960.09;;;0.36;100.00
65190;BME280;51777;53.570;9.984;2023-01-25T11:33:41;102954.22;;;0.32;100.00
65190;BME280;51777;53.570;9.984;2023-01-25T11:36:33;102942.22;;;0.40;100.00
65190;BME280;51777;53.570;9.984;2023-01-25T11:51:05;102922.06;;;0.28;100.00
65190;BME280;51777;53.570;9.984;2023-01-25T11:53:58;102912.59;;;0.38;100.00
65190;BME280;51777;53.570;9.984;2023-01-25T11:59:48;102898.78;;;-0.02;100.00
65190;BME280;51777;53.570;9.984;2023-01-25T12:05:31;102890.44;;;-0.08;100.00
65190;BME280;51777;53.570;9.984;2023-01-25T12:19:26;102860.06;;;-0.17;100.00
65190;BME280;51777;53.570;9.984;2023-01-25T12:28:06;102841.19;;;-0.03;100.00
65190;BME280;51777;53.570;9.984;2023-01-25T12:30:58;102826.00;;;-0.07;100.00
65190;BME280;51777;53.570;9.984;2023-01-25T12:33:44;102823.34;;;0.01;100.00
65190;BME280;51777;53.570;9.984;2023-01-25T12:39:24;102811.13;;;0.19;100.00
65190;BME280;51777;53.570;9.984;2023-01-25T12:42:21;102804.94;;;-0.12;100.00
65190;BME280;51777;53.570;9.984;2023-01-25T12:44:55;102789.63;;;-0.09;100.00
65190;BME280;51777;53.570;9.984;2023-01-25T12:47:31;102793.66;;;0.03;100.00
65190;BME280;51777;53.570;9.984;2023-01-25T12:53:01;102789.50;;;-0.03;100.00
65190;BME280;51777;53.570;9.984;2023-01-25T12:55:30;102792.84;;;-0.01;100.00
65190;BME280;51777;53.570;9.984;2023-01-25T13:06:45;102767.13;;;0.16;100.00
65190;BME280;51777;53.570;9.984;2023-01-25T13:09:19;102770.09;;;-0.07;100.00
65190;BME280;51777;53.570;9.984;2023-01-25T13:11:49;102762.53;;;-0.12;100.00
65190;BME280;51777;53.570;9.984;2023-01-25T13:16:44;102743.69;;;-0.02;100.00
65190;BME280;51777;53.570;9.984;2023-01-25T13:19:20;102744.44;;;0.05;100.00
65190;BME280;51777;53.570;9.984;2023-01-25T13:21:48;102745.31;;;0.04;100.00
65190;BME280;51777;53.570;9.984;2023-01-25T13:24:15;102741.75;;;0.13;100.00
65190;BME280;51777;53.570;9.984;2023-01-25T13:26:57;102741.75;;;0.11;100.00
65190;BME280;51777;53.570;9.984;2023-01-25T13:32:04;102742.19;;;-0.10;100.00
65190;BME280;51777;53.570;9.984;2023-01-25T13:37:23;102724.72;;;-0.30;100.00
65190;BME280;51777;53.570;9.984;2023-01-25T13:43:18;102710.88;;;-0.14;100.00
65190;BME280;51777;53.570;9.984;2023-01-25T13:45:49;102702.50;;;-0.19;100.00
65190;BME280;51777;53.570;9.984;2023-01-25T13:48:20;102695.59;;;-0.14;100.00
65190;BME280;51777;53.570;9.984;2023-01-25T13:51:09;102698.75;;;0.01;100.00
65190;BME280;51777;53.570;9.984;2023-01-25T13:53:38;102701.25;;;0.02;100.00
65190;BME280;51777;53.570;9.984;2023-01-25T13:58:52;102698.53;;;0.13;100.00
65190;BME280;51777;53.570;9.984;2023-01-25T14:01:20;102690.94;;;0.10;100.00
65190;BME280;51777;53.570;9.984;2023-01-25T14:04:03;102685.22;;;-0.02;100.00
65190;BME280;51777;53.570;9.984;2023-01-25T14:06:44;102685.91;;;0.07;100.00
65190;BME280;51777;53.570;9.984;2023-01-25T14:09:16;102685.22;;;0.00;100.00
65190;BME280;51777;53.570;9.984;2023-01-25T14:12:01;102688.09;;;-0.18;100.00
65190;BME280;51777;53.570;9.984;2023-01-25T14:17:18;102695.28;;;0.05;100.00
65190;BME280;51777;53.570;9.984;2023-01-25T14:19:58;102689.59;;;-0.08;100.00
65190;BME280;51777;53.570;9.984;2023-01-25T14:22:32;102679.34;;;-0.51;100.00
65190;BME280;51777;53.570;9.984;2023-01-25T14:25:40;102677.66;;;-0.49;100.00
65190;BME280;51777;53.570;9.984;2023-01-25T14:28:15;102685.94;;;-0.41;100.00
65190;BME280;51777;53.570;9.984;2023-01-25T14:30:41;102674.03;;;-0.36;100.00
65190;BME280;51777;53.570;9.984;2023-01-25T14:33:21;102666.47;;;-0.41;100.00
65190;BME280;51777;53.570;9.984;2023-01-25T14:35:47;102662.34;;;-0.46;100.00
65190;BME280;51777;53.570;9.984;2023-01-25T14:38:32;102657.22;;;-0.45;100.00